sensor_id;sensor_type;location;lat;lon;timestamp;temperature;humidity
19974;DHT22;10148;47.694;9.442;2022-08-01T00:00:58;21.80;99.90
19974;DHT22;10148;47.694;9.442;2022-08-01T00:03:24;21.90;99.90
19974;DHT22;10148;47.694;9.442;2022-08-01T00:05:49;22.00;99.90
19974;DHT22;10148;47.694;9.442;2022-08-01T00:08:15;22.10;99.90
19974;DHT22;10148;47.694;9.442;2022-08-01T00:10:40;22.20;99.90
19974;DHT22;10148;47.694;9.442;2022-08-01T00:13:06;22.30;99.90
19974;DHT22;10148;47.694;9.442;2022-08-01T00:15:31;22.40;99.90
19974;DHT22;10148;47.694;9.442;2022-08-01T00:17:57;22.50;99.90
19974;DHT22;10148;47.694;9.442;2022-08-01T00:20:23;22.50;99.90
19974;DHT22;10148;47.694;9.442;2022-08-01T00:22:48;22.50;99.90
19974;DHT22;10148;47.694;9.442;2022-08-01T00:25:14;22.50;99.90
19974;DHT22;10148;47.694;9.442;2022-08-01T00:27:39;22.50;99.90
19974;DHT22;10148;47.694;9.442;2022-08-01T00:30:05;22.40;99.90
19974;DHT22;10148;47.694;9.442;2022-08-01T00:32:32;22.30;99.90
19974;DHT22;10148;47.694;9.442;2022-08-01T00:34:57;22.30;99.90
19974;DHT22;10148;47.694;9.442;2022-08-01T00:37:23;22.20;99.90
19974;DHT22;10148;47.694;9.442;2022-08-01T00:39:48;22.20;99.90
19974;DHT22;10148;47.694;9.442;2022-08-01T00:42:14;22.10;99.90
19974;DHT22;10148;47.694;9.442;2022-08-01T00:44:40;22.10;99.90
19974;DHT22;10148;47.694;9.442;2022-08-01T00:47:07;22.10;99.90
19974;DHT22;10148;47.694;9.442;2022-08-01T00:49:33;22.20;99.90
19974;DHT22;10148;47.694;9.442;2022-08-01T00:51:58;22.20;99.90
19974;DHT22;10148;47.694;9.442;2022-08-01T00:54:25;22.30;99.90
19974;DHT22;10148;47.694;9.442;2022-08-01T00:56:52;22.20;99.90
19974;DHT22;10148;47.694;9.442;2022-08-01T00:59:21;22.20;99.90
19974;DHT22;10148;47.694;9.442;2022-08-01T01:01:46;22.10;99.90
19974;DHT22;10148;47.694;9.442;2022-08-01T01:04:12;22.10;99.90
19974;DHT22;10148;47.694;9.442;2022-08-01T01:06:43;22.00;99.90
19974;DHT22;10148;47.694;9.442;2022-08-01T01:09:38;22.00;99.90
19974;DHT22;10148;47.694;9.442;2022-08-01T01:12:31;22.00;99.90
19974;DHT22;10148;47.694;9.442;2022-08-01T01:20:27;21.80;99.90
19974;DHT22;10148;47.694;9.442;2022-08-01T01:28:29;21.70;99.90
19974;DHT22;10148;47.694;9.442;2022-08-01T01:30:59;21.60;99.90
19974;DHT22;10148;47.694;9.442;2022-08-01T01:33:27;21.70;99.90
19974;DHT22;10148;47.694;9.442;2022-08-01T01:36:03;21.60;99.90
19974;DHT22;10148;47.694;9.442;2022-08-01T01:38:34;21.60;99.90
19974;DHT22;10148;47.694;9.442;2022-08-01T01:41:02;21.60;99.90
19974;DHT22;10148;47.694;9.442;2022-08-01T01:43:29;21.60;99.90
19974;DHT22;10148;47.694;9.442;2022-08-01T01:45:56;21.70;99.90
19974;DHT22;10148;47.694;9.442;2022-08-01T01:48:23;21.70;99.90
19974;DHT22;10148;47.694;9.442;2022-08-01T01:50:49;21.70;99.90
19974;DHT22;10148;47.694;9.442;2022-08-01T01:53:19;21.70;99.90
19974;DHT22;10148;47.694;9.442;2022-08-01T01:55:47;21.80;99.90
19974;DHT22;10148;47.694;9.442;2022-08-01T01:58:14;21.80;99.90
19974;DHT22;10148;47.694;9.442;2022-08-01T02:00:42;21.90;99.90
19974;DHT22;10148;47.694;9.442;2022-08-01T02:03:11;22.00;99.90
19974;DHT22;10148;47.694;9.442;2022-08-01T02:05:39;21.90;99.90
19974;DHT22;10148;47.694;9.442;2022-08-01T02:08:06;21.80;99.90
19974;DHT22;10148;47.694;9.442;2022-08-01T02:10:34;21.70;99.90
19974;DHT22;10148;47.694;9.442;2022-08-01T02:13:02;21.60;99.90
19974;DHT22;10148;47.694;9.442;2022-08-01T02:15:30;21.60;99.90
19974;DHT22;10148;47.694;9.442;2022-08-01T02:17:57;21.50;99.90
19974;DHT22;10148;47.694;9.442;2022-08-01T02:20:24;21.50;99.90
19974;DHT22;10148;47.694;9.442;2022-08-01T02:22:53;21.40;99.90
19974;DHT22;10148;47.694;9.442;2022-08-01T02:25:32;21.40;99.90
19974;DHT22;10148;47.694;9.442;2022-08-01T02:28:09;21.40;99.90
19974;DHT22;10148;47.694;9.442;2022-08-01T02:30:37;21.40;99.90
19974;DHT22;10148;47.694;9.442;2022-08-01T02:33:17;21.30;99.90
19974;DHT22;10148;47.694;9.442;2022-08-01T02:35:46;21.30;99.90
19974;DHT22;10148;47.694;9.442;2022-08-01T02:38:13;21.30;99.90
19974;DHT22;10148;47.694;9.442;2022-08-01T02:40:43;21.30;99.90
19974;DHT22;10148;47.694;9.442;2022-08-01T02:43:10;21.30;99.90
19974;DHT22;10148;47.694;9.442;2022-08-01T02:45:41;21.30;99.90
19974;DHT22;10148;47.694;9.442;2022-08-01T02:48:12;21.30;99.90
19974;DHT22;10148;47.694;9.442;2022-08-01T02:50:42;21.30;99.90
19974;DHT22;10148;47.694;9.442;2022-08-01T02:53:08;21.30;99.90
19974;DHT22;10148;47.694;9.442;2022-08-01T02:55:37;21.30;99.90
19974;DHT22;10148;47.694;9.442;2022-08-01T02:58:04;21.30;99.90
19974;DHT22;10148;47.694;9.442;2022-08-01T03:00:32;21.30;99.90
19974;DHT22;10148;47.694;9.442;2022-08-01T03:02:59;21.30;99.90
19974;DHT22;10148;47.694;9.442;2022-08-01T03:05:26;21.30;99.90
19974;DHT22;10148;47.694;9.442;2022-08-01T03:07:54;21.10;99.90
19974;DHT22;10148;47.694;9.442;2022-08-01T03:10:20;21.10;99.90
19974;DHT22;10148;47.694;9.442;2022-08-01T03:12:47;21.10;99.90
19974;DHT22;10148;47.694;9.442;2022-08-01T03:15:14;21.00;99.90
19974;DHT22;10148;47.694;9.442;2022-08-01T03:17:41;21.00;99.90
19974;DHT22;10148;47.694;9.442;2022-08-01T03:20:10;21.00;99.90
19974;DHT22;10148;47.694;9.442;2022-08-01T03:22:39;20.90;99.90
19974;DHT22;10148;47.694;9.442;2022-08-01T03:27:33;20.80;99.90
19974;DHT22;10148;47.694;9.442;2022-08-01T03:30:03;20.80;99.90
19974;DHT22;10148;47.694;9.442;2022-08-01T03:32:30;20.70;99.90
19974;DHT22;10148;47.694;9.442;2022-08-01T03:34:57;20.50;99.90
19974;DHT22;10148;47.694;9.442;2022-08-01T03:37:36;20.40;99.90
19974;DHT22;10148;47.694;9.442;2022-08-01T03:42:35;20.20;99.90
19974;DHT22;10148;47.694;9.442;2022-08-01T03:45:06;20.10;99.90
19974;DHT22;10148;47.694;9.442;2022-08-01T03:47:35;20.00;99.90
19974;DHT22;10148;47.694;9.442;2022-08-01T03:50:05;20.00;99.90
19974;DHT22;10148;47.694;9.442;2022-08-01T03:52:32;20.00;99.90
19974;DHT22;10148;47.694;9.442;2022-08-01T03:55:03;19.90;99.90
19974;DHT22;10148;47.694;9.442;2022-08-01T03:57:30;19.90;99.90
19974;DHT22;10148;47.694;9.442;2022-08-01T03:59:57;19.90;99.90
19974;DHT22;10148;47.694;9.442;2022-08-01T04:02:23;20.00;99.90
19974;DHT22;10148;47.694;9.442;2022-08-01T04:04:50;20.10;99.90
19974;DHT22;10148;47.694;9.442;2022-08-01T04:07:27;20.20;99.90
19974;DHT22;10148;47.694;9.442;2022-08-01T04:09:53;20.30;99.90
19974;DHT22;10148;47.694;9.442;2022-08-01T04:12:19;20.30;99.90
19974;DHT22;10148;47.694;9.442;2022-08-01T04:14:45;20.30;99.90
19974;DHT22;10148;47.694;9.442;2022-08-01T04:17:11;20.30;99.90
19974;DHT22;10148;47.694;9.442;2022-08-01T04:19:36;20.20;99.90
19974;DHT22;10148;47.694;9.442;2022-08-01T04:22:03;20.10;99.90
19974;DHT22;10148;47.694;9.442;2022-08-01T04:24:31;20.00;99.90
19974;DHT22;10148;47.694;9.442;2022-08-01T04:26:59;19.90;99.90
19974;DHT22;10148;47.694;9.442;2022-08-01T04:29:26;19.80;99.90
19974;DHT22;10148;47.694;9.442;2022-08-01T04:31:54;19.70;99.90
19974;DHT22;10148;47.694;9.442;2022-08-01T04:34:23;19.70;99.90
19974;DHT22;10148;47.694;9.442;2022-08-01T04:36:52;19.70;99.90
19974;DHT22;10148;47.694;9.442;2022-08-01T04:39:20;19.70;99.90
19974;DHT22;10148;47.694;9.442;2022-08-01T04:41:47;19.70;99.90
19974;DHT22;10148;47.694;9.442;2022-08-01T04:44:13;19.70;99.90
19974;DHT22;10148;47.694;9.442;2022-08-01T04:46:40;19.80;99.90
19974;DHT22;10148;47.694;9.442;2022-08-01T04:49:07;20.00;99.90
19974;DHT22;10148;47.694;9.442;2022-08-01T04:51:34;20.10;99.90
19974;DHT22;10148;47.694;9.442;2022-08-01T04:54:00;20.20;99.90
19974;DHT22;10148;47.694;9.442;2022-08-01T04:56:26;20.30;99.90
19974;DHT22;10148;47.694;9.442;2022-08-01T04:58:52;20.40;99.90
19974;DHT22;10148;47.694;9.442;2022-08-01T05:01:37;20.50;99.90
19974;DHT22;10148;47.694;9.442;2022-08-01T05:04:03;20.70;99.90
19974;DHT22;10148;47.694;9.442;2022-08-01T05:06:29;20.80;99.90
19974;DHT22;10148;47.694;9.442;2022-08-01T05:08:54;20.80;99.90
19974;DHT22;10148;47.694;9.442;2022-08-01T05:11:20;20.80;99.90
19974;DHT22;10148;47.694;9.442;2022-08-01T05:13:47;20.80;99.90
19974;DHT22;10148;47.694;9.442;2022-08-01T05:16:13;20.60;99.90
19974;DHT22;10148;47.694;9.442;2022-08-01T05:18:38;20.40;99.90
19974;DHT22;10148;47.694;9.442;2022-08-01T05:21:04;20.30;99.90
19974;DHT22;10148;47.694;9.442;2022-08-01T05:23:29;20.30;99.90
19974;DHT22;10148;47.694;9.442;2022-08-01T05:25:55;20.30;99.90
19974;DHT22;10148;47.694;9.442;2022-08-01T05:28:20;20.40;99.90
19974;DHT22;10148;47.694;9.442;2022-08-01T05:30:46;20.40;99.90
19974;DHT22;10148;47.694;9.442;2022-08-01T05:33:11;20.50;99.90
19974;DHT22;10148;47.694;9.442;2022-08-01T05:35:37;20.50;99.90
19974;DHT22;10148;47.694;9.442;2022-08-01T05:38:02;20.50;99.90
19974;DHT22;10148;47.694;9.442;2022-08-01T05:40:28;20.50;99.90
19974;DHT22;10148;47.694;9.442;2022-08-01T05:42:53;20.40;99.90
19974;DHT22;10148;47.694;9.442;2022-08-01T05:45:19;20.40;99.90
19974;DHT22;10148;47.694;9.442;2022-08-01T05:47:44;20.30;99.90
19974;DHT22;10148;47.694;9.442;2022-08-01T05:50:10;20.40;99.90
19974;DHT22;10148;47.694;9.442;2022-08-01T05:52:35;20.60;99.90
19974;DHT22;10148;47.694;9.442;2022-08-01T05:55:02;20.80;99.90
19974;DHT22;10148;47.694;9.442;2022-08-01T05:57:27;21.00;99.90
19974;DHT22;10148;47.694;9.442;2022-08-01T05:59:53;21.30;99.90
19974;DHT22;10148;47.694;9.442;2022-08-01T06:02:18;21.40;99.90
19974;DHT22;10148;47.694;9.442;2022-08-01T06:04:44;21.50;99.90
19974;DHT22;10148;47.694;9.442;2022-08-01T06:07:10;21.70;99.90
19974;DHT22;10148;47.694;9.442;2022-08-01T06:09:35;21.70;99.90
19974;DHT22;10148;47.694;9.442;2022-08-01T06:12:01;21.70;99.90
19974;DHT22;10148;47.694;9.442;2022-08-01T06:14:26;21.80;99.90
19974;DHT22;10148;47.694;9.442;2022-08-01T06:16:52;21.80;99.90
19974;DHT22;10148;47.694;9.442;2022-08-01T06:19:17;21.80;99.90
19974;DHT22;10148;47.694;9.442;2022-08-01T06:21:43;21.80;99.90
19974;DHT22;10148;47.694;9.442;2022-08-01T06:24:08;21.70;99.90
19974;DHT22;10148;47.694;9.442;2022-08-01T06:26:34;21.60;99.90
19974;DHT22;10148;47.694;9.442;2022-08-01T06:29:01;21.60;99.90
19974;DHT22;10148;47.694;9.442;2022-08-01T06:31:27;21.60;99.90
19974;DHT22;10148;47.694;9.442;2022-08-01T06:33:52;21.60;99.90
19974;DHT22;10148;47.694;9.442;2022-08-01T06:36:18;21.60;99.90
19974;DHT22;10148;47.694;9.442;2022-08-01T06:38:44;21.60;99.90
19974;DHT22;10148;47.694;9.442;2022-08-01T06:41:10;21.60;99.90
19974;DHT22;10148;47.694;9.442;2022-08-01T06:43:35;21.60;99.90
19974;DHT22;10148;47.694;9.442;2022-08-01T06:46:01;21.60;99.90
19974;DHT22;10148;47.694;9.442;2022-08-01T06:48:26;21.70;99.90
19974;DHT22;10148;47.694;9.442;2022-08-01T06:50:52;21.70;99.90
19974;DHT22;10148;47.694;9.442;2022-08-01T06:53:33;21.70;99.90
19974;DHT22;10148;47.694;9.442;2022-08-01T06:55:59;21.70;99.90
19974;DHT22;10148;47.694;9.442;2022-08-01T06:58:25;21.70;99.90
19974;DHT22;10148;47.694;9.442;2022-08-01T07:00:50;21.70;99.90
19974;DHT22;10148;47.694;9.442;2022-08-01T07:03:16;21.80;99.90
19974;DHT22;10148;47.694;9.442;2022-08-01T07:05:41;21.90;99.90
19974;DHT22;10148;47.694;9.442;2022-08-01T07:08:07;21.90;99.90
19974;DHT22;10148;47.694;9.442;2022-08-01T07:10:32;21.90;99.90
19974;DHT22;10148;47.694;9.442;2022-08-01T07:12:58;22.00;99.90
19974;DHT22;10148;47.694;9.442;2022-08-01T07:15:24;22.00;99.90
19974;DHT22;10148;47.694;9.442;2022-08-01T07:17:52;22.10;99.90
19974;DHT22;10148;47.694;9.442;2022-08-01T07:20:19;22.10;99.90
19974;DHT22;10148;47.694;9.442;2022-08-01T07:22:44;22.20;99.90
19974;DHT22;10148;47.694;9.442;2022-08-01T07:25:10;22.20;99.90
19974;DHT22;10148;47.694;9.442;2022-08-01T07:27:36;22.20;99.90
19974;DHT22;10148;47.694;9.442;2022-08-01T07:30:03;22.30;99.90
19974;DHT22;10148;47.694;9.442;2022-08-01T07:32:28;22.30;99.90
19974;DHT22;10148;47.694;9.442;2022-08-01T07:34:54;22.40;99.90
19974;DHT22;10148;47.694;9.442;2022-08-01T07:37:20;22.60;99.90
19974;DHT22;10148;47.694;9.442;2022-08-01T07:39:45;22.60;99.90
19974;DHT22;10148;47.694;9.442;2022-08-01T07:42:11;22.70;99.90
19974;DHT22;10148;47.694;9.442;2022-08-01T07:44:37;22.80;99.90
19974;DHT22;10148;47.694;9.442;2022-08-01T07:47:03;22.80;99.90
19974;DHT22;10148;47.694;9.442;2022-08-01T07:49:29;22.80;99.90
19974;DHT22;10148;47.694;9.442;2022-08-01T07:51:55;22.90;99.90
19974;DHT22;10148;47.694;9.442;2022-08-01T07:54:20;22.90;99.90
19974;DHT22;10148;47.694;9.442;2022-08-01T07:56:49;22.90;99.90
19974;DHT22;10148;47.694;9.442;2022-08-01T07:59:15;23.00;99.90
19974;DHT22;10148;47.694;9.442;2022-08-01T08:01:40;23.00;99.90
19974;DHT22;10148;47.694;9.442;2022-08-01T08:04:07;23.00;99.90
19974;DHT22;10148;47.694;9.442;2022-08-01T08:06:32;23.10;99.90
19974;DHT22;10148;47.694;9.442;2022-08-01T08:08:58;23.20;99.90
19974;DHT22;10148;47.694;9.442;2022-08-01T08:11:23;23.30;99.90
19974;DHT22;10148;47.694;9.442;2022-08-01T08:13:49;23.40;99.90
19974;DHT22;10148;47.694;9.442;2022-08-01T08:16:14;23.40;99.90
19974;DHT22;10148;47.694;9.442;2022-08-01T08:18:40;23.50;99.90
19974;DHT22;10148;47.694;9.442;2022-08-01T08:21:05;23.50;99.90
19974;DHT22;10148;47.694;9.442;2022-08-01T08:23:31;23.60;99.90
19974;DHT22;10148;47.694;9.442;2022-08-01T08:26:15;23.60;99.90
19974;DHT22;10148;47.694;9.442;2022-08-01T08:28:41;23.70;99.90
19974;DHT22;10148;47.694;9.442;2022-08-01T08:31:07;23.80;99.90
19974;DHT22;10148;47.694;9.442;2022-08-01T08:33:33;23.90;99.90
19974;DHT22;10148;47.694;9.442;2022-08-01T08:35:59;23.90;99.90
19974;DHT22;10148;47.694;9.442;2022-08-01T08:38:24;24.00;99.90
19974;DHT22;10148;47.694;9.442;2022-08-01T08:40:52;24.10;99.90
19974;DHT22;10148;47.694;9.442;2022-08-01T08:43:18;24.10;99.90
19974;DHT22;10148;47.694;9.442;2022-08-01T08:45:45;24.10;99.90
19974;DHT22;10148;47.694;9.442;2022-08-01T08:48:12;24.20;99.90
19974;DHT22;10148;47.694;9.442;2022-08-01T08:50:38;24.20;99.90
19974;DHT22;10148;47.694;9.442;2022-08-01T08:53:06;24.30;99.90
19974;DHT22;10148;47.694;9.442;2022-08-01T08:55:35;24.40;99.90
19974;DHT22;10148;47.694;9.442;2022-08-01T08:58:01;24.40;99.90
19974;DHT22;10148;47.694;9.442;2022-08-01T09:00:31;24.40;99.90
19974;DHT22;10148;47.694;9.442;2022-08-01T09:02:57;24.50;99.90
19974;DHT22;10148;47.694;9.442;2022-08-01T09:05:23;24.60;99.90
19974;DHT22;10148;47.694;9.442;2022-08-01T09:07:52;24.50;99.90
19974;DHT22;10148;47.694;9.442;2022-08-01T09:10:18;24.60;99.90
19974;DHT22;10148;47.694;9.442;2022-08-01T09:13:03;24.70;99.90
19974;DHT22;10148;47.694;9.442;2022-08-01T09:15:47;24.80;99.90
19974;DHT22;10148;47.694;9.442;2022-08-01T09:18:35;24.70;99.90
19974;DHT22;10148;47.694;9.442;2022-08-01T09:21:33;24.80;99.90
19974;DHT22;10148;47.694;9.442;2022-08-01T09:23:59;24.90;99.90
19974;DHT22;10148;47.694;9.442;2022-08-01T09:26:33;25.00;99.90
19974;DHT22;10148;47.694;9.442;2022-08-01T09:29:02;25.00;99.90
19974;DHT22;10148;47.694;9.442;2022-08-01T09:31:28;25.10;99.90
19974;DHT22;10148;47.694;9.442;2022-08-01T09:34:00;25.30;99.90
19974;DHT22;10148;47.694;9.442;2022-08-01T09:36:53;25.30;99.90
19974;DHT22;10148;47.694;9.442;2022-08-01T09:39:36;25.30;99.90
19974;DHT22;10148;47.694;9.442;2022-08-01T09:42:23;25.50;99.90
19974;DHT22;10148;47.694;9.442;2022-08-01T09:44:49;25.60;99.90
19974;DHT22;10148;47.694;9.442;2022-08-01T09:47:15;25.60;99.90
19974;DHT22;10148;47.694;9.442;2022-08-01T09:49:42;25.50;99.90
19974;DHT22;10148;47.694;9.442;2022-08-01T09:52:16;25.50;99.90
19974;DHT22;10148;47.694;9.442;2022-08-01T09:54:44;25.60;99.90
19974;DHT22;10148;47.694;9.442;2022-08-01T09:57:18;25.80;99.90
19974;DHT22;10148;47.694;9.442;2022-08-01T09:59:45;25.70;99.90
19974;DHT22;10148;47.694;9.442;2022-08-01T10:02:14;25.70;99.90
19974;DHT22;10148;47.694;9.442;2022-08-01T10:04:51;25.60;99.90
19974;DHT22;10148;47.694;9.442;2022-08-01T10:07:17;25.60;99.90
19974;DHT22;10148;47.694;9.442;2022-08-01T10:09:44;25.70;99.90
19974;DHT22;10148;47.694;9.442;2022-08-01T10:12:12;25.60;99.90
19974;DHT22;10148;47.694;9.442;2022-08-01T10:14:39;25.70;99.90
19974;DHT22;10148;47.694;9.442;2022-08-01T10:17:08;25.70;99.90
19974;DHT22;10148;47.694;9.442;2022-08-01T10:19:34;25.70;99.90
19974;DHT22;10148;47.694;9.442;2022-08-01T10:22:01;25.80;99.90
19974;DHT22;10148;47.694;9.442;2022-08-01T10:24:28;25.90;99.90
19974;DHT22;10148;47.694;9.442;2022-08-01T10:27:01;26.00;99.90
19974;DHT22;10148;47.694;9.442;2022-08-01T10:29:46;26.30;99.90
19974;DHT22;10148;47.694;9.442;2022-08-01T10:32:12;26.30;99.90
19974;DHT22;10148;47.694;9.442;2022-08-01T10:34:38;26.40;99.90
19974;DHT22;10148;47.694;9.442;2022-08-01T10:37:04;26.50;99.90
19974;DHT22;10148;47.694;9.442;2022-08-01T10:39:31;26.50;99.90
19974;DHT22;10148;47.694;9.442;2022-08-01T10:41:58;26.60;99.90
19974;DHT22;10148;47.694;9.442;2022-08-01T10:44:25;26.40;99.90
19974;DHT22;10148;47.694;9.442;2022-08-01T10:46:59;26.50;99.90
19974;DHT22;10148;47.694;9.442;2022-08-01T10:49:28;26.70;99.90
19974;DHT22;10148;47.694;9.442;2022-08-01T10:51:55;26.90;99.90
19974;DHT22;10148;47.694;9.442;2022-08-01T10:54:24;27.00;99.90
19974;DHT22;10148;47.694;9.442;2022-08-01T10:56:51;26.90;99.90
19974;DHT22;10148;47.694;9.442;2022-08-01T10:59:27;27.00;99.90
19974;DHT22;10148;47.694;9.442;2022-08-01T11:02:01;27.10;99.90
19974;DHT22;10148;47.694;9.442;2022-08-01T11:04:42;27.20;99.90
19974;DHT22;10148;47.694;9.442;2022-08-01T11:07:17;27.30;99.90
19974;DHT22;10148;47.694;9.442;2022-08-01T11:09:46;27.40;99.90
19974;DHT22;10148;47.694;9.442;2022-08-01T11:12:17;27.60;99.90
19974;DHT22;10148;47.694;9.442;2022-08-01T11:17:36;27.70;99.90
19974;DHT22;10148;47.694;9.442;2022-08-01T11:20:21;27.80;99.90
19974;DHT22;10148;47.694;9.442;2022-08-01T11:30:43;27.50;99.90
19974;DHT22;10148;47.694;9.442;2022-08-01T11:33:09;27.50;99.90
19974;DHT22;10148;47.694;9.442;2022-08-01T11:35:36;27.60;99.90
19974;DHT22;10148;47.694;9.442;2022-08-01T11:38:22;27.90;99.90
19974;DHT22;10148;47.694;9.442;2022-08-01T11:41:21;28.00;99.90
19974;DHT22;10148;47.694;9.442;2022-08-01T11:44:16;28.30;99.90
19974;DHT22;10148;47.694;9.442;2022-08-01T11:51:56;28.60;99.90
19974;DHT22;10148;47.694;9.442;2022-08-01T11:54:34;28.80;99.90
19974;DHT22;10148;47.694;9.442;2022-08-01T11:57:03;29.10;99.90
19974;DHT22;10148;47.694;9.442;2022-08-01T11:59:45;29.20;99.90
19974;DHT22;10148;47.694;9.442;2022-08-01T12:02:31;29.20;99.90
19974;DHT22;10148;47.694;9.442;2022-08-01T12:05:00;29.10;99.90
19974;DHT22;10148;47.694;9.442;2022-08-01T12:07:27;29.20;99.90
19974;DHT22;10148;47.694;9.442;2022-08-01T12:12:28;29.10;99.90
19974;DHT22;10148;47.694;9.442;2022-08-01T12:15:03;29.00;99.90
19974;DHT22;10148;47.694;9.442;2022-08-01T12:17:31;29.00;99.90
19974;DHT22;10148;47.694;9.442;2022-08-01T12:19:57;29.00;99.90
19974;DHT22;10148;47.694;9.442;2022-08-01T12:22:24;29.10;99.90
19974;DHT22;10148;47.694;9.442;2022-08-01T12:24:50;29.40;99.90
19974;DHT22;10148;47.694;9.442;2022-08-01T12:27:27;29.50;99.90
19974;DHT22;10148;47.694;9.442;2022-08-01T12:29:54;29.60;99.90
19974;DHT22;10148;47.694;9.442;2022-08-01T12:32:31;29.20;99.90
19974;DHT22;10148;47.694;9.442;2022-08-01T12:35:08;29.50;99.90
19974;DHT22;10148;47.694;9.442;2022-08-01T12:37:38;29.90;99.90
19974;DHT22;10148;47.694;9.442;2022-08-01T12:40:11;29.90;99.90
19974;DHT22;10148;47.694;9.442;2022-08-01T12:42:41;29.90;99.90
19974;DHT22;10148;47.694;9.442;2022-08-01T12:45:08;30.00;99.90
19974;DHT22;10148;47.694;9.442;2022-08-01T12:47:36;30.20;99.90
19974;DHT22;10148;47.694;9.442;2022-08-01T12:50:05;30.20;99.90
19974;DHT22;10148;47.694;9.442;2022-08-01T12:52:31;30.10;99.90
19974;DHT22;10148;47.694;9.442;2022-08-01T12:55:02;30.10;99.90
19974;DHT22;10148;47.694;9.442;2022-08-01T12:57:28;30.10;99.90
19974;DHT22;10148;47.694;9.442;2022-08-01T13:00:16;30.20;99.90
19974;DHT22;10148;47.694;9.442;2022-08-01T13:02:43;30.40;99.90
19974;DHT22;10148;47.694;9.442;2022-08-01T13:05:10;30.50;99.90
19974;DHT22;10148;47.694;9.442;2022-08-01T13:10:02;30.60;99.90
19974;DHT22;10148;47.694;9.442;2022-08-01T13:12:28;30.40;99.90
19974;DHT22;10148;47.694;9.442;2022-08-01T13:14:53;30.20;99.90
19974;DHT22;10148;47.694;9.442;2022-08-01T13:17:35;30.40;99.90
19974;DHT22;10148;47.694;9.442;2022-08-01T13:20:03;30.50;99.90
19974;DHT22;10148;47.694;9.442;2022-08-01T13:22:37;30.60;99.90
19974;DHT22;10148;47.694;9.442;2022-08-01T13:25:13;30.70;99.90
19974;DHT22;10148;47.694;9.442;2022-08-01T13:27:39;30.70;99.90
19974;DHT22;10148;47.694;9.442;2022-08-01T13:30:19;30.80;99.90
19974;DHT22;10148;47.694;9.442;2022-08-01T13:32:57;30.90;99.90
19974;DHT22;10148;47.694;9.442;2022-08-01T13:35:24;30.90;99.90
19974;DHT22;10148;47.694;9.442;2022-08-01T13:37:49;31.20;99.90
19974;DHT22;10148;47.694;9.442;2022-08-01T13:40:26;31.30;99.90
19974;DHT22;10148;47.694;9.442;2022-08-01T13:42:53;31.30;99.90
19974;DHT22;10148;47.694;9.442;2022-08-01T13:45:20;31.50;99.90
19974;DHT22;10148;47.694;9.442;2022-08-01T13:47:46;31.70;99.90
19974;DHT22;10148;47.694;9.442;2022-08-01T13:50:11;32.00;99.90
19974;DHT22;10148;47.694;9.442;2022-08-01T13:52:37;32.00;99.90
19974;DHT22;10148;47.694;9.442;2022-08-01T13:55:03;32.20;99.90
19974;DHT22;10148;47.694;9.442;2022-08-01T13:57:29;32.20;99.90
19974;DHT22;10148;47.694;9.442;2022-08-01T13:59:54;32.40;99.90
19974;DHT22;10148;47.694;9.442;2022-08-01T14:02:20;32.40;99.90
19974;DHT22;10148;47.694;9.442;2022-08-01T14:04:46;32.70;99.90
19974;DHT22;10148;47.694;9.442;2022-08-01T14:07:12;32.70;99.90
19974;DHT22;10148;47.694;9.442;2022-08-01T14:09:38;32.50;99.90
19974;DHT22;10148;47.694;9.442;2022-08-01T14:12:04;32.40;99.90
19974;DHT22;10148;47.694;9.442;2022-08-01T14:14:30;32.40;99.90
19974;DHT22;10148;47.694;9.442;2022-08-01T14:16:55;32.40;99.90
19974;DHT22;10148;47.694;9.442;2022-08-01T14:19:21;32.70;99.90
19974;DHT22;10148;47.694;9.442;2022-08-01T14:21:47;33.00;99.90
19974;DHT22;10148;47.694;9.442;2022-08-01T14:24:12;33.10;99.90
19974;DHT22;10148;47.694;9.442;2022-08-01T14:26:38;33.20;99.90
19974;DHT22;10148;47.694;9.442;2022-08-01T14:29:03;33.30;99.90
19974;DHT22;10148;47.694;9.442;2022-08-01T14:31:29;33.50;99.50
19974;DHT22;10148;47.694;9.442;2022-08-01T14:33:55;33.20;99.80
19974;DHT22;10148;47.694;9.442;2022-08-01T14:36:20;33.10;99.90
19974;DHT22;10148;47.694;9.442;2022-08-01T14:38:46;33.00;98.10
19974;DHT22;10148;47.694;9.442;2022-08-01T14:41:12;32.80;98.00
19974;DHT22;10148;47.694;9.442;2022-08-01T14:43:38;32.90;99.90
19974;DHT22;10148;47.694;9.442;2022-08-01T14:46:04;33.30;99.90
19974;DHT22;10148;47.694;9.442;2022-08-01T14:48:29;33.60;99.40
19974;DHT22;10148;47.694;9.442;2022-08-01T14:50:56;33.80;97.40
19974;DHT22;10148;47.694;9.442;2022-08-01T14:53:21;33.70;97.70
19974;DHT22;10148;47.694;9.442;2022-08-01T14:55:47;33.50;95.10
19974;DHT22;10148;47.694;9.442;2022-08-01T14:58:12;32.90;96.20
19974;DHT22;10148;47.694;9.442;2022-08-01T15:00:38;33.10;97.20
19974;DHT22;10148;47.694;9.442;2022-08-01T15:03:03;33.40;98.60
19974;DHT22;10148;47.694;9.442;2022-08-01T15:05:29;33.60;96.30
19974;DHT22;10148;47.694;9.442;2022-08-01T15:07:55;33.80;98.10
19974;DHT22;10148;47.694;9.442;2022-08-01T15:10:21;34.00;95.30
19974;DHT22;10148;47.694;9.442;2022-08-01T15:12:48;34.20;95.40
19974;DHT22;10148;47.694;9.442;2022-08-01T15:15:13;34.10;96.40
19974;DHT22;10148;47.694;9.442;2022-08-01T15:17:39;34.20;97.20
19974;DHT22;10148;47.694;9.442;2022-08-01T15:20:06;34.10;94.40
19974;DHT22;10148;47.694;9.442;2022-08-01T15:22:32;34.00;95.10
19974;DHT22;10148;47.694;9.442;2022-08-01T15:24:59;34.20;95.80
19974;DHT22;10148;47.694;9.442;2022-08-01T15:27:25;34.00;92.80
19974;DHT22;10148;47.694;9.442;2022-08-01T15:29:51;34.10;92.40
19974;DHT22;10148;47.694;9.442;2022-08-01T15:32:17;33.70;92.90
19974;DHT22;10148;47.694;9.442;2022-08-01T15:34:44;33.60;91.40
19974;DHT22;10148;47.694;9.442;2022-08-01T15:37:10;33.50;91.70
19974;DHT22;10148;47.694;9.442;2022-08-01T15:39:37;33.30;92.60
19974;DHT22;10148;47.694;9.442;2022-08-01T15:42:14;33.30;93.30
19974;DHT22;10148;47.694;9.442;2022-08-01T15:44:40;33.30;93.20
19974;DHT22;10148;47.694;9.442;2022-08-01T15:47:06;33.40;95.10
19974;DHT22;10148;47.694;9.442;2022-08-01T15:49:32;33.10;97.70
19974;DHT22;10148;47.694;9.442;2022-08-01T15:51:58;32.80;98.50
19974;DHT22;10148;47.694;9.442;2022-08-01T15:54:24;32.40;99.40
19974;DHT22;10148;47.694;9.442;2022-08-01T15:56:49;32.00;99.90
19974;DHT22;10148;47.694;9.442;2022-08-01T15:59:15;31.80;99.90
19974;DHT22;10148;47.694;9.442;2022-08-01T16:01:41;31.30;99.90
19974;DHT22;10148;47.694;9.442;2022-08-01T16:04:07;31.00;99.90
19974;DHT22;10148;47.694;9.442;2022-08-01T16:06:34;30.80;99.90
19974;DHT22;10148;47.694;9.442;2022-08-01T16:08:59;30.40;99.90
19974;DHT22;10148;47.694;9.442;2022-08-01T16:11:25;30.10;99.90
19974;DHT22;10148;47.694;9.442;2022-08-01T16:13:53;29.80;99.90